Friedman Memorial Airport
KSUN : now visible

Airfield :











YOU CAN JOIN US ON...

 
LOGIN :

Register | Disclaimer

   EN    FR    IT 

 









Legend :    VFR   Marginal VFR   IFR   Intensive IFR   Very Intensive IFR
Visi :
Ceiling :
>= 8 km
>= 3000ft
5 to 8 km
1000 to 3000 ft
1500m to 5 km
500 to 1000 ft
800 to 1500m
200 to 500 ft
< 800m
< 200 ft
Symbols :   Thunderstorms  Fog  Heavy snow  Heavy precipitations  Wind > 20 kt






- Airport Elevation : 5318 ft


KSUN - Friedman Memorial

CURRENT METAR :
  • 271350Z 30009KT 10SM SKC 06/M05 A3009

EXPIRED METARs :
  • 271335Z AUTO 31009KT 10SM CLR 06/M05 A3008 RMK AO2
  • 271315Z AUTO 31008KT 10SM CLR 06/M05 A3008 RMK AO2
  • 271255Z AUTO 32009G14KT 10SM CLR 07/M05 A3007 RMK AO2
  • 271247Z 31009G15KT 10SM SKC 07/M06 A3007
  • 271235Z AUTO 31009KT 10SM CLR 07/M05 A3007 RMK AO2
  • 271215Z AUTO 31011KT 10SM CLR 07/M05 A3008 RMK AO2
  • 271155Z AUTO 32009KT 10SM CLR 07/M05 A3008 RMK AO2
  • 271135Z AUTO 32011KT 10SM CLR 07/M06 A3007 RMK AO2
  • 271115Z AUTO 30009KT 10SM CLR 07/M05 A3007 RMK AO2

TAF KSUN
Valid from the 27 at 12:00 until the 28 at 18:00 UTC


271120Z 2712/2818 32011KT P6SM SKC
FM271800 15009KT P6SM SKC
FM272200 20010KT P6SM SKC
FM280400 32009KT P6SM SKC
FM281600 26011KT P6SM VCSH OVC090 AMD LTD TO CLD VIS AND WIND TIL 271300
KZLC FIR / North America



MET'MAP, your aeronautical weather chart ! - Copyright ORBIFLY December 2007 - Disclaimer

ORBIFLY MET'MAP TEAM :

Programming & Development : Alexandra Zaïnal
Concept & original design : Baudouin d'Aumeries
Assistance for programming : Marc-Olivier Méhu
Technical & hardware support : Manuel Goepfert

Contact : metmap@orbifly.com




SOURCES & CREDITS :

   NOAA       Earth
Advisory